createdAt,value
2019-04-05T00:01:32.324Z,69.52
2019-04-05T00:04:04.521Z,69.93
2019-04-05T00:06:35.358Z,70.24
2019-04-05T00:09:07.798Z,70.43
2019-04-05T00:11:38.584Z,70.39
2019-04-05T00:14:09.600Z,69.70
2019-04-05T00:16:40.317Z,69.72
2019-04-05T00:19:10.849Z,69.51
2019-04-05T00:21:41.515Z,68.70
2019-04-05T00:24:12.287Z,68.70
2019-04-05T00:26:43.222Z,68.82
2019-04-05T00:29:15.806Z,68.59
2019-04-05T00:31:46.743Z,68.04
2019-04-05T00:34:17.416Z,68.21
2019-04-05T00:36:48.036Z,67.82
2019-04-05T00:39:19.016Z,68.23
2019-04-05T00:41:49.631Z,68.23
2019-04-05T00:44:19.960Z,67.61
2019-04-05T00:46:50.576Z,67.61
2019-04-05T00:49:21.634Z,67.94
2019-04-05T00:51:52.424Z,68.16
2019-04-05T00:54:23.473Z,68.43
2019-04-05T00:56:54.322Z,68.77
2019-04-05T00:59:24.709Z,69.31
2019-04-05T01:01:55.600Z,69.53
2019-04-05T01:04:27.365Z,69.26
2019-04-05T01:06:59.114Z,69.11
2019-04-05T01:09:29.944Z,69.45
2019-04-05T01:12:00.807Z,69.18
2019-04-05T01:14:31.820Z,68.84
2019-04-05T01:17:02.638Z,69.52
2019-04-05T01:19:35.735Z,70.01
2019-04-05T01:22:08.692Z,69.44
2019-04-05T01:24:39.395Z,69.44
2019-04-05T01:27:10.238Z,70.21
2019-04-05T01:29:40.589Z,70.65
2019-04-05T01:32:10.952Z,70.65
2019-04-05T01:34:41.554Z,71.09
2019-04-05T01:37:11.894Z,70.89
2019-04-05T01:39:42.214Z,70.60
2019-04-05T01:42:12.632Z,70.62
2019-04-05T01:44:43.769Z,70.61
2019-04-05T01:47:14.112Z,70.58
2019-04-05T01:49:44.461Z,70.18
2019-04-05T01:52:15.079Z,69.96
2019-04-05T01:54:45.648Z,69.92
2019-04-05T01:57:15.988Z,70.35
2019-04-05T01:59:47.048Z,70.10
2019-04-05T02:02:17.388Z,70.36
2019-04-05T02:04:47.914Z,70.53
2019-04-05T02:07:18.371Z,70.35
2019-04-05T02:09:49.123Z,69.84
2019-04-05T02:12:19.479Z,69.30
2019-04-05T02:14:49.919Z,69.30
2019-04-05T02:17:20.278Z,68.74
2019-04-05T02:19:50.577Z,68.02
2019-04-05T02:22:20.935Z,68.01
2019-04-05T02:24:51.295Z,68.05
2019-04-05T02:27:21.697Z,68.36
2019-04-05T02:29:52.196Z,68.05
2019-04-05T02:32:22.548Z,68.11
2019-04-05T02:34:52.817Z,68.24
2019-04-05T02:37:23.179Z,68.71
2019-04-05T02:39:53.673Z,69.11
2019-04-05T02:42:24.577Z,69.28
2019-04-05T02:44:56.026Z,69.38
2019-04-05T02:47:27.490Z,69.39
2019-04-05T02:49:59.362Z,69.75
2019-04-05T02:52:30.783Z,69.45
2019-04-05T02:55:02.847Z,69.59
2019-04-05T02:57:35.562Z,68.83
2019-04-05T03:00:08.757Z,68.29
2019-04-05T03:02:39.562Z,69.09
2019-04-05T03:05:10.580Z,69.09
2019-04-05T03:07:41.320Z,69.09
2019-04-05T03:10:15.475Z,69.10
2019-04-05T03:12:46.273Z,69.29
2019-04-05T03:15:17.092Z,68.96
2019-04-05T03:17:48.064Z,68.64
2019-04-05T03:20:19.074Z,67.87
2019-04-05T03:22:49.761Z,67.87
2019-04-05T03:25:20.612Z,67.88
2019-04-05T03:27:51.553Z,68.03
2019-04-05T03:30:42.369Z,66.91
2019-04-05T03:33:12.905Z,66.91
2019-04-05T03:35:43.417Z,66.30
2019-04-05T03:38:14.232Z,65.99
2019-04-05T03:40:45.646Z,65.71
2019-04-05T03:43:16.365Z,65.87
2019-04-05T03:45:47.414Z,66.52
2019-04-05T03:48:18.263Z,66.52
2019-04-05T03:50:49.057Z,66.67
2019-04-05T03:53:19.699Z,66.38
2019-04-05T03:55:51.268Z,65.84
2019-04-05T03:58:22.217Z,65.67
2019-04-05T04:00:52.808Z,65.42
2019-04-05T04:03:23.293Z,65.57
2019-04-05T04:05:53.592Z,65.96
2019-04-05T04:08:25.539Z,66.38
2019-04-05T04:10:56.970Z,66.52
2019-04-05T04:13:27.720Z,67.04
2019-04-05T04:15:58.216Z,66.99
2019-04-05T04:18:28.731Z,67.27
2019-04-05T04:21:02.795Z,67.80
2019-04-05T04:23:33.988Z,67.26
2019-04-05T04:26:04.683Z,65.94
2019-04-05T04:28:35.211Z,65.35
2019-04-05T04:31:05.767Z,65.35
2019-04-05T04:33:36.435Z,65.64
2019-04-05T04:36:06.929Z,64.69
2019-04-05T04:38:38.586Z,62.87
2019-04-05T04:41:09.516Z,62.87
2019-04-05T04:43:40.887Z,63.07
2019-04-05T04:46:11.635Z,63.07
2019-04-05T04:48:42.836Z,63.79
2019-04-05T04:51:14.111Z,63.79
2019-04-05T04:53:45.718Z,64.01
2019-04-05T04:56:16.286Z,63.57
2019-04-05T04:58:46.944Z,63.51
2019-04-05T05:01:17.975Z,63.51
2019-04-05T05:03:49.047Z,62.85
2019-04-05T05:06:19.913Z,62.85
2019-04-05T05:08:52.037Z,64.23
2019-04-05T05:11:22.442Z,63.90
2019-04-05T05:13:53.183Z,63.22
2019-04-05T05:16:24.482Z,63.22
2019-04-05T05:18:55.379Z,63.30
2019-04-05T05:21:26.591Z,63.22
2019-04-05T05:23:59.067Z,64.43
2019-04-05T05:26:30.611Z,64.43
2019-04-05T05:29:01.537Z,64.85
2019-04-05T05:31:32.716Z,62.05
2019-04-05T05:34:03.430Z,62.05
2019-04-05T05:36:34.335Z,62.53
2019-04-05T05:39:06.489Z,61.95
2019-04-05T05:41:36.855Z,61.70
2019-04-05T05:44:07.336Z,61.91
2019-04-05T05:46:37.778Z,62.68
2019-04-05T05:49:08.170Z,63.14
2019-04-05T05:51:39.364Z,63.36
2019-04-05T05:54:09.792Z,62.99
2019-04-05T05:56:40.088Z,62.78
2019-04-05T05:59:10.435Z,61.47
2019-04-05T06:01:40.827Z,59.08
2019-04-05T06:04:12.765Z,58.46
2019-04-05T06:06:43.279Z,58.05
2019-04-05T06:09:14.035Z,58.60
2019-04-05T06:11:44.295Z,58.87
2019-04-05T06:14:14.599Z,58.68
2019-04-05T06:16:46.642Z,58.96
2019-04-05T06:19:17.153Z,59.60
2019-04-05T06:21:47.484Z,58.52
2019-04-05T06:24:18.093Z,58.96
2019-04-05T06:26:49.315Z,59.02
2019-04-05T06:29:19.994Z,59.13
2019-04-05T06:31:50.638Z,59.23
2019-04-05T06:34:22.607Z,58.60
2019-04-05T06:36:53.281Z,58.31
2019-04-05T06:39:24.050Z,58.42
2019-04-05T06:41:54.964Z,58.50
2019-04-05T06:44:27.822Z,58.30
2019-04-05T06:46:58.012Z,58.44
2019-04-05T06:49:28.639Z,57.54
2019-04-05T06:51:59.179Z,56.66
2019-04-05T06:54:29.846Z,56.89
2019-04-05T06:57:00.555Z,56.64
2019-04-05T06:59:31.193Z,56.25
2019-04-05T07:02:10.745Z,55.47
2019-04-05T07:04:41.411Z,55.43
2019-04-05T07:07:12.449Z,54.46
2019-04-05T07:09:43.297Z,53.50
2019-04-05T07:12:13.938Z,54.31
2019-04-05T07:14:44.375Z,53.92
2019-04-05T07:17:15.038Z,54.74
2019-04-05T07:19:45.512Z,54.59
2019-04-05T07:22:15.783Z,54.28
2019-04-05T07:24:49.538Z,55.49
2019-04-05T07:27:20.240Z,54.96
2019-04-05T07:29:51.148Z,54.61
2019-04-05T07:32:22.089Z,54.59
2019-04-05T07:34:52.858Z,55.06
2019-04-05T07:37:23.453Z,54.50
2019-04-05T07:39:54.102Z,55.11
2019-04-05T07:42:24.463Z,54.58
2019-04-05T07:44:54.905Z,53.83
2019-04-05T07:47:25.223Z,53.82
2019-04-05T07:49:55.436Z,53.70
2019-04-05T07:52:25.850Z,55.12
2019-04-05T07:54:56.240Z,53.53
2019-04-05T07:57:26.677Z,53.26
2019-04-05T07:59:57.104Z,53.20
2019-04-05T08:02:27.462Z,53.05
2019-04-05T08:04:57.913Z,53.28
2019-04-05T08:07:32.162Z,53.44
2019-04-05T08:10:03.175Z,53.13
2019-04-05T08:12:33.984Z,54.08
2019-04-05T08:15:04.910Z,54.79
2019-04-05T08:17:35.176Z,55.28
2019-04-05T08:20:05.756Z,56.24
2019-04-05T08:22:36.229Z,57.33
2019-04-05T08:25:06.861Z,56.61
2019-04-05T08:27:37.318Z,55.66
2019-04-05T08:30:08.899Z,55.31
2019-04-05T08:32:39.212Z,55.87
2019-04-05T08:35:09.518Z,55.18
2019-04-05T08:37:39.978Z,55.00
2019-04-05T08:40:10.940Z,54.08
2019-04-05T08:42:41.340Z,54.80
2019-04-05T08:45:12.043Z,55.15
2019-04-05T08:47:42.449Z,55.17
2019-04-05T08:50:12.857Z,55.60
2019-04-05T08:52:43.241Z,56.29
2019-04-05T08:55:13.889Z,56.74
2019-04-05T08:57:44.231Z,55.68
2019-04-05T09:00:15.048Z,55.08
2019-04-05T09:02:45.517Z,55.54
2019-04-05T09:05:16.271Z,56.05
2019-04-05T09:07:47.095Z,56.85
2019-04-05T09:10:17.558Z,56.76
2019-04-05T09:12:48.379Z,56.37
2019-04-05T09:15:19.207Z,55.07
2019-04-05T09:17:49.608Z,54.28
2019-04-05T09:20:19.982Z,54.55
2019-04-05T09:22:50.388Z,55.30
2019-04-05T09:25:21.990Z,54.64
2019-04-05T09:27:52.586Z,54.77
2019-04-05T09:30:23.745Z,54.90
2019-04-05T09:32:54.269Z,54.06
2019-04-05T09:35:24.781Z,52.83
2019-04-05T09:37:57.105Z,52.02
2019-04-05T09:40:27.937Z,52.24
2019-04-05T09:42:58.319Z,51.79
2019-04-05T09:45:28.794Z,52.10
2019-04-05T09:47:59.586Z,52.31
2019-04-05T09:50:30.248Z,51.57
2019-04-05T09:53:01.190Z,51.89
2019-04-05T09:55:31.865Z,52.09
2019-04-05T09:58:02.609Z,51.93
2019-04-05T10:00:33.326Z,51.00
